sensor_id;sensor_type;location;lat;lon;timestamp;temperature;humidity
4183;DHT22;2105;52.300;9.182;2024-01-30T00:01:52;8.90;99.90
4183;DHT22;2105;52.300;9.182;2024-01-30T00:04:19;8.90;1.00
4183;DHT22;2105;52.300;9.182;2024-01-30T00:06:46;8.90;1.00
4183;DHT22;2105;52.300;9.182;2024-01-30T00:09:12;8.80;1.00
4183;DHT22;2105;52.300;9.182;2024-01-30T00:11:40;8.80;1.00
4183;DHT22;2105;52.300;9.182;2024-01-30T00:14:07;9.00;1.00
4183;DHT22;2105;52.300;9.182;2024-01-30T00:16:34;9.10;1.00
4183;DHT22;2105;52.300;9.182;2024-01-30T00:19:00;9.20;1.00
4183;DHT22;2105;52.300;9.182;2024-01-30T00:21:28;9.10;1.00
4183;DHT22;2105;52.300;9.182;2024-01-30T00:23:54;9.00;99.90
4183;DHT22;2105;52.300;9.182;2024-01-30T00:26:21;8.90;1.00
4183;DHT22;2105;52.300;9.182;2024-01-30T00:28:49;8.70;1.00
4183;DHT22;2105;52.300;9.182;2024-01-30T00:31:15;8.50;1.00
4183;DHT22;2105;52.300;9.182;2024-01-30T00:33:42;8.40;1.00
4183;DHT22;2105;52.300;9.182;2024-01-30T00:36:09;8.30;99.90
4183;DHT22;2105;52.300;9.182;2024-01-30T00:38:37;8.30;1.00
4183;DHT22;2105;52.300;9.182;2024-01-30T00:41:07;8.40;1.00
4183;DHT22;2105;52.300;9.182;2024-01-30T00:43:34;8.30;1.00
4183;DHT22;2105;52.300;9.182;2024-01-30T00:46:02;8.40;99.90
4183;DHT22;2105;52.300;9.182;2024-01-30T00:48:29;8.20;1.00
4183;DHT22;2105;52.300;9.182;2024-01-30T00:50:56;8.10;1.00
4183;DHT22;2105;52.300;9.182;2024-01-30T00:53:22;8.10;99.90
4183;DHT22;2105;52.300;9.182;2024-01-30T00:55:49;8.10;99.90
4183;DHT22;2105;52.300;9.182;2024-01-30T00:58:16;8.10;99.90
4183;DHT22;2105;52.300;9.182;2024-01-30T01:00:44;8.10;1.00
4183;DHT22;2105;52.300;9.182;2024-01-30T01:03:12;8.10;1.00
4183;DHT22;2105;52.300;9.182;2024-01-30T01:05:39;8.00;99.90
4183;DHT22;2105;52.300;9.182;2024-01-30T01:08:06;8.20;99.90
4183;DHT22;2105;52.300;9.182;2024-01-30T01:10:34;8.20;99.90
4183;DHT22;2105;52.300;9.182;2024-01-30T01:13:01;8.20;1.00
4183;DHT22;2105;52.300;9.182;2024-01-30T01:15:27;8.20;99.90
4183;DHT22;2105;52.300;9.182;2024-01-30T01:17:54;8.20;99.90
4183;DHT22;2105;52.300;9.182;2024-01-30T01:20:22;8.20;99.90
4183;DHT22;2105;52.300;9.182;2024-01-30T01:22:48;8.20;1.00
4183;DHT22;2105;52.300;9.182;2024-01-30T01:25:15;8.30;1.00
4183;DHT22;2105;52.300;9.182;2024-01-30T01:27:42;8.30;1.00
4183;DHT22;2105;52.300;9.182;2024-01-30T01:30:11;8.30;1.00
4183;DHT22;2105;52.300;9.182;2024-01-30T01:32:43;8.30;1.00
4183;DHT22;2105;52.300;9.182;2024-01-30T01:35:15;8.40;99.90
4183;DHT22;2105;52.300;9.182;2024-01-30T01:37:43;8.60;35.60
4183;DHT22;2105;52.300;9.182;2024-01-30T01:40:10;8.70;1.00
4183;DHT22;2105;52.300;9.182;2024-01-30T01:42:37;9.10;1.00
4183;DHT22;2105;52.300;9.182;2024-01-30T01:45:04;9.40;1.00
4183;DHT22;2105;52.300;9.182;2024-01-30T01:47:31;9.60;41.20
4183;DHT22;2105;52.300;9.182;2024-01-30T01:49:57;9.70;1.00
4183;DHT22;2105;52.300;9.182;2024-01-30T01:52:24;9.80;99.90
4183;DHT22;2105;52.300;9.182;2024-01-30T01:54:52;9.80;28.30
4183;DHT22;2105;52.300;9.182;2024-01-30T01:57:19;9.90;1.00
4183;DHT22;2105;52.300;9.182;2024-01-30T01:59:45;9.80;1.00
4183;DHT22;2105;52.300;9.182;2024-01-30T02:02:12;9.90;1.00
4183;DHT22;2105;52.300;9.182;2024-01-30T02:04:41;10.00;1.00
4183;DHT22;2105;52.300;9.182;2024-01-30T02:07:08;10.00;1.00
4183;DHT22;2105;52.300;9.182;2024-01-30T02:09:35;10.00;1.00
4183;DHT22;2105;52.300;9.182;2024-01-30T02:12:03;10.00;1.00
4183;DHT22;2105;52.300;9.182;2024-01-30T02:14:30;9.90;1.00
4183;DHT22;2105;52.300;9.182;2024-01-30T02:16:56;9.80;1.00
4183;DHT22;2105;52.300;9.182;2024-01-30T02:19:23;9.80;1.00
4183;DHT22;2105;52.300;9.182;2024-01-30T02:21:51;10.00;1.00
4183;DHT22;2105;52.300;9.182;2024-01-30T02:24:18;9.90;1.00
4183;DHT22;2105;52.300;9.182;2024-01-30T02:26:45;10.00;1.00
4183;DHT22;2105;52.300;9.182;2024-01-30T02:29:11;10.10;1.00
4183;DHT22;2105;52.300;9.182;2024-01-30T02:31:38;10.10;99.90
4183;DHT22;2105;52.300;9.182;2024-01-30T02:34:07;10.10;99.90
4183;DHT22;2105;52.300;9.182;2024-01-30T02:36:34;9.90;99.90
4183;DHT22;2105;52.300;9.182;2024-01-30T02:39:02;9.90;1.00
4183;DHT22;2105;52.300;9.182;2024-01-30T02:41:29;10.00;99.90
4183;DHT22;2105;52.300;9.182;2024-01-30T02:43:56;10.00;99.90
4183;DHT22;2105;52.300;9.182;2024-01-30T02:46:22;10.20;99.90
4183;DHT22;2105;52.300;9.182;2024-01-30T02:48:49;10.20;99.90
4183;DHT22;2105;52.300;9.182;2024-01-30T02:51:16;10.30;99.90
4183;DHT22;2105;52.300;9.182;2024-01-30T02:53:42;10.30;99.90
4183;DHT22;2105;52.300;9.182;2024-01-30T02:56:10;10.30;18.70
4183;DHT22;2105;52.300;9.182;2024-01-30T02:58:39;10.30;1.00
4183;DHT22;2105;52.300;9.182;2024-01-30T03:01:05;10.20;1.00
4183;DHT22;2105;52.300;9.182;2024-01-30T03:03:32;10.20;99.90
4183;DHT22;2105;52.300;9.182;2024-01-30T03:06:00;10.20;99.90
4183;DHT22;2105;52.300;9.182;2024-01-30T03:08:27;10.20;84.00
4183;DHT22;2105;52.300;9.182;2024-01-30T03:14:16;10.20;55.30
4183;DHT22;2105;52.300;9.182;2024-01-30T03:16:43;10.00;99.90
4183;DHT22;2105;52.300;9.182;2024-01-30T03:19:10;10.00;99.90
4183;DHT22;2105;52.300;9.182;2024-01-30T03:21:36;10.00;99.90
4183;DHT22;2105;52.300;9.182;2024-01-30T03:24:03;10.00;99.90
4183;DHT22;2105;52.300;9.182;2024-01-30T03:26:30;9.90;99.90
4183;DHT22;2105;52.300;9.182;2024-01-30T03:28:57;9.80;99.90
4183;DHT22;2105;52.300;9.182;2024-01-30T03:31:25;9.90;99.90
4183;DHT22;2105;52.300;9.182;2024-01-30T03:33:51;9.90;99.90
4183;DHT22;2105;52.300;9.182;2024-01-30T03:36:18;10.00;99.90
4183;DHT22;2105;52.300;9.182;2024-01-30T03:38:44;10.10;99.90
4183;DHT22;2105;52.300;9.182;2024-01-30T03:41:11;10.00;99.90
4183;DHT22;2105;52.300;9.182;2024-01-30T03:43:38;9.90;93.40
4183;DHT22;2105;52.300;9.182;2024-01-30T03:46:04;9.80;99.90
4183;DHT22;2105;52.300;9.182;2024-01-30T03:48:32;9.70;99.90
4183;DHT22;2105;52.300;9.182;2024-01-30T03:50:59;9.70;99.90
4183;DHT22;2105;52.300;9.182;2024-01-30T03:53:26;9.60;99.90
4183;DHT22;2105;52.300;9.182;2024-01-30T03:55:53;9.60;99.90
4183;DHT22;2105;52.300;9.182;2024-01-30T03:58:19;9.50;99.90
4183;DHT22;2105;52.300;9.182;2024-01-30T04:00:46;9.60;1.00
4183;DHT22;2105;52.300;9.182;2024-01-30T04:03:14;9.50;1.00
4183;DHT22;2105;52.300;9.182;2024-01-30T04:05:42;9.40;99.90
4183;DHT22;2105;52.300;9.182;2024-01-30T04:08:09;9.20;99.90
4183;DHT22;2105;52.300;9.182;2024-01-30T04:10:35;8.90;1.00
4183;DHT22;2105;52.300;9.182;2024-01-30T04:13:02;8.70;1.00
4183;DHT22;2105;52.300;9.182;2024-01-30T04:15:29;8.40;19.10
4183;DHT22;2105;52.300;9.182;2024-01-30T04:17:57;8.30;99.90
4183;DHT22;2105;52.300;9.182;2024-01-30T04:20:24;8.40;1.00
4183;DHT22;2105;52.300;9.182;2024-01-30T04:22:52;8.80;99.90
4183;DHT22;2105;52.300;9.182;2024-01-30T04:25:19;9.00;1.00
4183;DHT22;2105;52.300;9.182;2024-01-30T04:27:45;9.00;1.00
4183;DHT22;2105;52.300;9.182;2024-01-30T04:30:12;9.10;1.00
4183;DHT22;2105;52.300;9.182;2024-01-30T04:32:39;9.20;99.90
4183;DHT22;2105;52.300;9.182;2024-01-30T04:35:06;9.30;99.90
4183;DHT22;2105;52.300;9.182;2024-01-30T04:37:33;9.30;86.60
4183;DHT22;2105;52.300;9.182;2024-01-30T04:40:01;9.40;1.00
4183;DHT22;2105;52.300;9.182;2024-01-30T04:42:28;9.50;1.00
4183;DHT22;2105;52.300;9.182;2024-01-30T04:44:55;9.50;1.00
4183;DHT22;2105;52.300;9.182;2024-01-30T04:47:21;9.40;1.00
4183;DHT22;2105;52.300;9.182;2024-01-30T04:49:48;9.30;1.00
4183;DHT22;2105;52.300;9.182;2024-01-30T04:52:16;9.20;1.00
4183;DHT22;2105;52.300;9.182;2024-01-30T04:54:42;9.10;1.00
4183;DHT22;2105;52.300;9.182;2024-01-30T04:57:10;8.80;1.00
4183;DHT22;2105;52.300;9.182;2024-01-30T04:59:37;8.50;1.00
4183;DHT22;2105;52.300;9.182;2024-01-30T05:02:04;8.30;99.90
4183;DHT22;2105;52.300;9.182;2024-01-30T05:04:31;8.10;1.00
4183;DHT22;2105;52.300;9.182;2024-01-30T05:06:58;7.90;1.00
4183;DHT22;2105;52.300;9.182;2024-01-30T05:09:24;8.00;99.90
4183;DHT22;2105;52.300;9.182;2024-01-30T05:11:51;8.00;1.00
4183;DHT22;2105;52.300;9.182;2024-01-30T05:14:19;7.90;72.80
4183;DHT22;2105;52.300;9.182;2024-01-30T05:16:46;7.90;99.90
4183;DHT22;2105;52.300;9.182;2024-01-30T05:19:13;8.00;99.90
4183;DHT22;2105;52.300;9.182;2024-01-30T05:21:41;8.10;1.00
4183;DHT22;2105;52.300;9.182;2024-01-30T05:24:07;8.10;99.90
4183;DHT22;2105;52.300;9.182;2024-01-30T05:26:35;8.10;99.90
4183;DHT22;2105;52.300;9.182;2024-01-30T05:29:02;8.10;1.00
4183;DHT22;2105;52.300;9.182;2024-01-30T05:31:30;8.20;1.00
4183;DHT22;2105;52.300;9.182;2024-01-30T05:33:57;8.50;1.00
4183;DHT22;2105;52.300;9.182;2024-01-30T05:36:23;8.70;99.90
4183;DHT22;2105;52.300;9.182;2024-01-30T05:38:50;8.80;92.20
4183;DHT22;2105;52.300;9.182;2024-01-30T05:41:17;9.10;99.90
4183;DHT22;2105;52.300;9.182;2024-01-30T05:43:43;9.20;1.00
4183;DHT22;2105;52.300;9.182;2024-01-30T05:46:10;9.30;1.00
4183;DHT22;2105;52.300;9.182;2024-01-30T05:48:38;9.50;99.90
4183;DHT22;2105;52.300;9.182;2024-01-30T05:51:06;9.60;64.10
4183;DHT22;2105;52.300;9.182;2024-01-30T05:53:33;9.70;1.00
4183;DHT22;2105;52.300;9.182;2024-01-30T05:56:01;9.80;1.00
4183;DHT22;2105;52.300;9.182;2024-01-30T05:58:28;9.70;1.00
4183;DHT22;2105;52.300;9.182;2024-01-30T06:00:54;9.50;1.00
4183;DHT22;2105;52.300;9.182;2024-01-30T06:03:21;9.50;1.00
4183;DHT22;2105;52.300;9.182;2024-01-30T06:05:49;9.40;1.00
4183;DHT22;2105;52.300;9.182;2024-01-30T06:08:15;9.30;1.00
4183;DHT22;2105;52.300;9.182;2024-01-30T06:10:42;9.40;1.00
4183;DHT22;2105;52.300;9.182;2024-01-30T06:13:09;9.50;1.00
4183;DHT22;2105;52.300;9.182;2024-01-30T06:15:36;9.40;1.00
4183;DHT22;2105;52.300;9.182;2024-01-30T06:18:02;9.40;1.00
4183;DHT22;2105;52.300;9.182;2024-01-30T06:20:29;9.30;1.00
4183;DHT22;2105;52.300;9.182;2024-01-30T06:22:57;9.20;1.00
4183;DHT22;2105;52.300;9.182;2024-01-30T06:25:24;9.30;29.30
4183;DHT22;2105;52.300;9.182;2024-01-30T06:27:50;9.40;99.90
4183;DHT22;2105;52.300;9.182;2024-01-30T06:30:24;9.70;1.00
4183;DHT22;2105;52.300;9.182;2024-01-30T06:32:55;9.80;1.00
4183;DHT22;2105;52.300;9.182;2024-01-30T06:35:22;9.70;99.90
4183;DHT22;2105;52.300;9.182;2024-01-30T06:37:48;9.40;99.90
4183;DHT22;2105;52.300;9.182;2024-01-30T06:40:16;9.10;1.00
4183;DHT22;2105;52.300;9.182;2024-01-30T06:42:43;8.80;1.00
4183;DHT22;2105;52.300;9.182;2024-01-30T06:45:09;8.60;99.90
4183;DHT22;2105;52.300;9.182;2024-01-30T06:47:36;8.50;99.90
4183;DHT22;2105;52.300;9.182;2024-01-30T06:50:03;8.40;1.00
4183;DHT22;2105;52.300;9.182;2024-01-30T06:52:30;8.50;1.00
4183;DHT22;2105;52.300;9.182;2024-01-30T06:54:57;8.50;1.00
4183;DHT22;2105;52.300;9.182;2024-01-30T06:57:24;8.50;1.00
4183;DHT22;2105;52.300;9.182;2024-01-30T06:59:53;8.60;1.00
4183;DHT22;2105;52.300;9.182;2024-01-30T07:02:20;8.80;83.60
4183;DHT22;2105;52.300;9.182;2024-01-30T07:04:47;8.80;1.00
4183;DHT22;2105;52.300;9.182;2024-01-30T07:07:14;9.00;1.00
4183;DHT22;2105;52.300;9.182;2024-01-30T07:09:41;9.20;1.00
4183;DHT22;2105;52.300;9.182;2024-01-30T07:12:08;9.30;99.90
4183;DHT22;2105;52.300;9.182;2024-01-30T07:14:36;9.40;99.90
4183;DHT22;2105;52.300;9.182;2024-01-30T07:17:03;9.60;1.00
4183;DHT22;2105;52.300;9.182;2024-01-30T07:19:30;9.70;1.00
4183;DHT22;2105;52.300;9.182;2024-01-30T07:21:56;9.80;99.90
4183;DHT22;2105;52.300;9.182;2024-01-30T07:24:23;9.90;99.90
4183;DHT22;2105;52.300;9.182;2024-01-30T07:26:50;9.90;99.90
4183;DHT22;2105;52.300;9.182;2024-01-30T07:29:16;10.00;99.90
4183;DHT22;2105;52.300;9.182;2024-01-30T07:31:44;10.10;99.90
4183;DHT22;2105;52.300;9.182;2024-01-30T07:34:11;10.20;99.90
4183;DHT22;2105;52.300;9.182;2024-01-30T07:36:38;10.30;81.80
4183;DHT22;2105;52.300;9.182;2024-01-30T07:39:05;10.40;1.00
4183;DHT22;2105;52.300;9.182;2024-01-30T07:41:32;10.40;1.00
4183;DHT22;2105;52.300;9.182;2024-01-30T07:43:58;10.40;1.00
4183;DHT22;2105;52.300;9.182;2024-01-30T07:46:25;10.50;1.00
4183;DHT22;2105;52.300;9.182;2024-01-30T07:48:53;10.50;1.00
4183;DHT22;2105;52.300;9.182;2024-01-30T07:51:21;10.50;1.00
4183;DHT22;2105;52.300;9.182;2024-01-30T07:53:47;10.50;1.00
4183;DHT22;2105;52.300;9.182;2024-01-30T07:56:14;10.60;1.00
4183;DHT22;2105;52.300;9.182;2024-01-30T07:58:41;10.50;1.00
4183;DHT22;2105;52.300;9.182;2024-01-30T08:01:08;10.50;1.00
4183;DHT22;2105;52.300;9.182;2024-01-30T08:03:34;10.50;1.00
4183;DHT22;2105;52.300;9.182;2024-01-30T08:06:04;10.60;1.00
4183;DHT22;2105;52.300;9.182;2024-01-30T08:08:30;10.70;1.00
4183;DHT22;2105;52.300;9.182;2024-01-30T08:10:57;10.80;1.00
4183;DHT22;2105;52.300;9.182;2024-01-30T08:13:24;10.90;1.00
4183;DHT22;2105;52.300;9.182;2024-01-30T08:15:50;10.90;1.00
4183;DHT22;2105;52.300;9.182;2024-01-30T08:18:17;10.90;1.00
4183;DHT22;2105;52.300;9.182;2024-01-30T08:20:44;10.90;1.00
4183;DHT22;2105;52.300;9.182;2024-01-30T08:23:12;10.90;1.00
4183;DHT22;2105;52.300;9.182;2024-01-30T08:25:39;10.80;1.00
4183;DHT22;2105;52.300;9.182;2024-01-30T08:28:06;10.70;1.00
4183;DHT22;2105;52.300;9.182;2024-01-30T08:30:32;10.60;1.00
4183;DHT22;2105;52.300;9.182;2024-01-30T08:32:59;10.60;1.00
4183;DHT22;2105;52.300;9.182;2024-01-30T08:35:26;10.60;1.00
4183;DHT22;2105;52.300;9.182;2024-01-30T08:37:53;10.70;1.00
4183;DHT22;2105;52.300;9.182;2024-01-30T08:40:21;10.80;1.00
4183;DHT22;2105;52.300;9.182;2024-01-30T08:42:48;11.00;1.00
4183;DHT22;2105;52.300;9.182;2024-01-30T08:45:15;11.00;1.00
4183;DHT22;2105;52.300;9.182;2024-01-30T08:47:41;11.10;1.00
4183;DHT22;2105;52.300;9.182;2024-01-30T08:50:08;11.10;99.90
4183;DHT22;2105;52.300;9.182;2024-01-30T08:52:35;11.20;99.90
4183;DHT22;2105;52.300;9.182;2024-01-30T08:55:02;11.20;99.90
4183;DHT22;2105;52.300;9.182;2024-01-30T08:57:31;11.20;99.90
4183;DHT22;2105;52.300;9.182;2024-01-30T08:59:58;11.20;99.90
4183;DHT22;2105;52.300;9.182;2024-01-30T09:02:24;11.20;99.90
4183;DHT22;2105;52.300;9.182;2024-01-30T09:04:51;11.30;99.90
4183;DHT22;2105;52.300;9.182;2024-01-30T09:07:17;11.20;99.90
4183;DHT22;2105;52.300;9.182;2024-01-30T09:09:44;11.10;99.90
4183;DHT22;2105;52.300;9.182;2024-01-30T09:12:11;11.20;99.90
4183;DHT22;2105;52.300;9.182;2024-01-30T09:14:39;11.20;99.90
4183;DHT22;2105;52.300;9.182;2024-01-30T09:17:06;11.20;99.90
4183;DHT22;2105;52.300;9.182;2024-01-30T09:19:33;11.20;99.90
4183;DHT22;2105;52.300;9.182;2024-01-30T09:22:00;11.20;99.90
4183;DHT22;2105;52.300;9.182;2024-01-30T09:24:27;11.20;99.90
4183;DHT22;2105;52.300;9.182;2024-01-30T09:26:54;11.20;99.90
4183;DHT22;2105;52.300;9.182;2024-01-30T09:29:21;11.40;99.90
4183;DHT22;2105;52.300;9.182;2024-01-30T09:31:49;11.50;99.90
4183;DHT22;2105;52.300;9.182;2024-01-30T09:34:15;11.60;99.90
4183;DHT22;2105;52.300;9.182;2024-01-30T09:36:42;11.80;99.90
4183;DHT22;2105;52.300;9.182;2024-01-30T09:39:09;12.00;99.90
4183;DHT22;2105;52.300;9.182;2024-01-30T09:41:41;12.10;99.90
4183;DHT22;2105;52.300;9.182;2024-01-30T09:44:11;12.10;99.90
4183;DHT22;2105;52.300;9.182;2024-01-30T09:46:39;12.10;99.90
4183;DHT22;2105;52.300;9.182;2024-01-30T09:49:09;11.90;99.90
4183;DHT22;2105;52.300;9.182;2024-01-30T09:51:35;11.80;99.90
4183;DHT22;2105;52.300;9.182;2024-01-30T09:54:03;11.70;99.90
4183;DHT22;2105;52.300;9.182;2024-01-30T09:56:29;11.70;99.90
4183;DHT22;2105;52.300;9.182;2024-01-30T09:58:56;11.80;99.90
4183;DHT22;2105;52.300;9.182;2024-01-30T10:01:23;11.80;99.90
4183;DHT22;2105;52.300;9.182;2024-01-30T10:03:50;11.80;99.90
4183;DHT22;2105;52.300;9.182;2024-01-30T10:06:19;11.80;99.90
4183;DHT22;2105;52.300;9.182;2024-01-30T10:08:47;11.80;99.90
4183;DHT22;2105;52.300;9.182;2024-01-30T10:11:14;11.80;99.90
4183;DHT22;2105;52.300;9.182;2024-01-30T10:13:41;11.90;99.90
4183;DHT22;2105;52.300;9.182;2024-01-30T10:16:08;12.00;99.90
4183;DHT22;2105;52.300;9.182;2024-01-30T10:18:34;12.30;99.90
4183;DHT22;2105;52.300;9.182;2024-01-30T10:21:01;12.50;99.90
4183;DHT22;2105;52.300;9.182;2024-01-30T10:23:29;12.60;99.90
4183;DHT22;2105;52.300;9.182;2024-01-30T10:25:56;12.60;99.90
4183;DHT22;2105;52.300;9.182;2024-01-30T10:28:26;12.70;99.90
4183;DHT22;2105;52.300;9.182;2024-01-30T10:30:58;12.80;40.60
4183;DHT22;2105;52.300;9.182;2024-01-30T10:33:26;12.80;37.70
4183;DHT22;2105;52.300;9.182;2024-01-30T10:35:55;12.80;82.50
4183;DHT22;2105;52.300;9.182;2024-01-30T10:38:30;12.80;85.70
4183;DHT22;2105;52.300;9.182;2024-01-30T10:40:57;12.70;57.60
4183;DHT22;2105;52.300;9.182;2024-01-30T10:43:30;12.80;84.10
4183;DHT22;2105;52.300;9.182;2024-01-30T10:46:04;12.70;53.80
4183;DHT22;2105;52.300;9.182;2024-01-30T10:48:36;12.70;99.30
4183;DHT22;2105;52.300;9.182;2024-01-30T10:51:08;12.60;22.80
4183;DHT22;2105;52.300;9.182;2024-01-30T10:53:37;12.50;35.10
4183;DHT22;2105;52.300;9.182;2024-01-30T10:56:06;12.50;99.90
4183;DHT22;2105;52.300;9.182;2024-01-30T10:58:33;12.40;72.90
4183;DHT22;2105;52.300;9.182;2024-01-30T11:01:00;12.30;69.40
4183;DHT22;2105;52.300;9.182;2024-01-30T11:03:27;12.20;99.90
4183;DHT22;2105;52.300;9.182;2024-01-30T11:05:58;12.20;99.90
4183;DHT22;2105;52.300;9.182;2024-01-30T11:08:25;12.20;99.90
4183;DHT22;2105;52.300;9.182;2024-01-30T11:10:56;12.20;99.90
4183;DHT22;2105;52.300;9.182;2024-01-30T11:13:27;12.20;99.90
4183;DHT22;2105;52.300;9.182;2024-01-30T11:15:54;12.20;99.90
4183;DHT22;2105;52.300;9.182;2024-01-30T11:18:25;12.40;95.30
4183;DHT22;2105;52.300;9.182;2024-01-30T11:20:52;12.40;49.80
4183;DHT22;2105;52.300;9.182;2024-01-30T11:23:18;12.30;71.30
4183;DHT22;2105;52.300;9.182;2024-01-30T11:25:48;12.40;86.90
4183;DHT22;2105;52.300;9.182;2024-01-30T11:28:16;12.50;61.00
4183;DHT22;2105;52.300;9.182;2024-01-30T11:30:44;12.60;3.90
4183;DHT22;2105;52.300;9.182;2024-01-30T11:33:13;12.70;1.00
4183;DHT22;2105;52.300;9.182;2024-01-30T11:35:41;12.60;1.00
4183;DHT22;2105;52.300;9.182;2024-01-30T11:38:10;12.60;1.00
4183;DHT22;2105;52.300;9.182;2024-01-30T11:40:38;12.50;34.20
4183;DHT22;2105;52.300;9.182;2024-01-30T11:43:07;12.50;98.60
4183;DHT22;2105;52.300;9.182;2024-01-30T11:45:36;12.40;99.90
4183;DHT22;2105;52.300;9.182;2024-01-30T11:48:03;12.40;99.90
4183;DHT22;2105;52.300;9.182;2024-01-30T11:50:30;12.60;99.90
4183;DHT22;2105;52.300;9.182;2024-01-30T11:52:58;12.70;57.40
4183;DHT22;2105;52.300;9.182;2024-01-30T11:55:25;12.80;18.00
4183;DHT22;2105;52.300;9.182;2024-01-30T11:57:55;12.90;51.30
4183;DHT22;2105;52.300;9.182;2024-01-30T12:00:22;13.10;5.20
4183;DHT22;2105;52.300;9.182;2024-01-30T12:02:54;13.10;1.00
4183;DHT22;2105;52.300;9.182;2024-01-30T12:05:22;13.10;1.00
4183;DHT22;2105;52.300;9.182;2024-01-30T12:07:49;13.10;1.00
4183;DHT22;2105;52.300;9.182;2024-01-30T12:10:16;13.00;1.00
4183;DHT22;2105;52.300;9.182;2024-01-30T12:12:44;12.90;1.00
4183;DHT22;2105;52.300;9.182;2024-01-30T12:15:12;12.80;24.60
4183;DHT22;2105;52.300;9.182;2024-01-30T12:17:40;12.70;67.10
4183;DHT22;2105;52.300;9.182;2024-01-30T12:20:09;12.70;90.30
4183;DHT22;2105;52.300;9.182;2024-01-30T12:22:37;12.70;99.90
4183;DHT22;2105;52.300;9.182;2024-01-30T12:25:04;12.70;99.90
4183;DHT22;2105;52.300;9.182;2024-01-30T12:27:31;12.60;99.90
4183;DHT22;2105;52.300;9.182;2024-01-30T12:29:58;12.60;99.90
4183;DHT22;2105;52.300;9.182;2024-01-30T12:32:25;12.60;99.90
4183;DHT22;2105;52.300;9.182;2024-01-30T12:34:55;12.60;99.90
4183;DHT22;2105;52.300;9.182;2024-01-30T12:37:22;12.60;99.90
4183;DHT22;2105;52.300;9.182;2024-01-30T12:39:51;12.60;99.90
4183;DHT22;2105;52.300;9.182;2024-01-30T12:42:18;12.60;99.90
4183;DHT22;2105;52.300;9.182;2024-01-30T12:44:45;12.70;99.90
4183;DHT22;2105;52.300;9.182;2024-01-30T12:47:12;12.80;99.90
4183;DHT22;2105;52.300;9.182;2024-01-30T12:49:38;13.00;99.90
4183;DHT22;2105;52.300;9.182;2024-01-30T12:52:05;12.90;99.90
4183;DHT22;2105;52.300;9.182;2024-01-30T12:54:33;13.10;99.90
4183;DHT22;2105;52.300;9.182;2024-01-30T12:57:00;12.90;99.90
4183;DHT22;2105;52.300;9.182;2024-01-30T12:59:26;12.90;99.90
4183;DHT22;2105;52.300;9.182;2024-01-30T13:01:53;12.80;99.90
4183;DHT22;2105;52.300;9.182;2024-01-30T13:04:22;12.80;99.90
4183;DHT22;2105;52.300;9.182;2024-01-30T13:06:49;12.70;99.90
4183;DHT22;2105;52.300;9.182;2024-01-30T13:09:16;12.70;99.90
4183;DHT22;2105;52.300;9.182;2024-01-30T13:11:44;12.60;99.90
4183;DHT22;2105;52.300;9.182;2024-01-30T13:14:11;12.60;99.90
4183;DHT22;2105;52.300;9.182;2024-01-30T13:16:37;12.50;99.90
4183;DHT22;2105;52.300;9.182;2024-01-30T13:19:04;12.50;1.00
4183;DHT22;2105;52.300;9.182;2024-01-30T13:21:31;12.40;1.00
4183;DHT22;2105;52.300;9.182;2024-01-30T13:23:58;12.40;1.00
4183;DHT22;2105;52.300;9.182;2024-01-30T13:26:25;12.30;1.00
4183;DHT22;2105;52.300;9.182;2024-01-30T13:28:53;12.30;1.00
4183;DHT22;2105;52.300;9.182;2024-01-30T13:31:19;12.20;1.00
4183;DHT22;2105;52.300;9.182;2024-01-30T13:33:46;12.10;61.80
4183;DHT22;2105;52.300;9.182;2024-01-30T13:36:14;12.10;99.90
4183;DHT22;2105;52.300;9.182;2024-01-30T13:38:41;12.10;1.00
4183;DHT22;2105;52.300;9.182;2024-01-30T13:41:07;12.10;1.00
4183;DHT22;2105;52.300;9.182;2024-01-30T13:43:34;12.10;1.00
4183;DHT22;2105;52.300;9.182;2024-01-30T13:46:02;12.20;1.00
4183;DHT22;2105;52.300;9.182;2024-01-30T13:48:30;12.20;1.00
4183;DHT22;2105;52.300;9.182;2024-01-30T13:50:57;12.30;1.00
4183;DHT22;2105;52.300;9.182;2024-01-30T13:53:24;12.30;1.00
4183;DHT22;2105;52.300;9.182;2024-01-30T13:55:50;12.30;1.00
4183;DHT22;2105;52.300;9.182;2024-01-30T13:58:17;12.30;1.00
4183;DHT22;2105;52.300;9.182;2024-01-30T14:00:43;12.30;1.00
4183;DHT22;2105;52.300;9.182;2024-01-30T14:06:26;12.30;1.00
4183;DHT22;2105;52.300;9.182;2024-01-30T14:08:54;12.30;1.00
4183;DHT22;2105;52.300;9.182;2024-01-30T14:11:35;12.20;1.00
4183;DHT22;2105;52.300;9.182;2024-01-30T14:14:05;12.20;1.00
4183;DHT22;2105;52.300;9.182;2024-01-30T14:16:35;12.20;1.00
4183;DHT22;2105;52.300;9.182;2024-01-30T14:19:02;12.20;1.00
4183;DHT22;2105;52.300;9.182;2024-01-30T14:21:30;12.10;1.00
4183;DHT22;2105;52.300;9.182;2024-01-30T14:23:57;12.20;1.00
4183;DHT22;2105;52.300;9.182;2024-01-30T14:26:31;12.20;1.00
4183;DHT22;2105;52.300;9.182;2024-01-30T14:28:58;12.10;1.00
4183;DHT22;2105;52.300;9.182;2024-01-30T14:31:25;12.20;1.00
4183;DHT22;2105;52.300;9.182;2024-01-30T14:33:51;12.20;1.00
4183;DHT22;2105;52.300;9.182;2024-01-30T14:36:18;12.20;1.00
4183;DHT22;2105;52.300;9.182;2024-01-30T14:38:47;12.20;1.00
4183;DHT22;2105;52.300;9.182;2024-01-30T14:41:14;12.20;1.00
4183;DHT22;2105;52.300;9.182;2024-01-30T14:43:41;12.20;1.00
4183;DHT22;2105;52.300;9.182;2024-01-30T14:46:08;12.20;16.70
4183;DHT22;2105;52.300;9.182;2024-01-30T14:48:35;12.20;1.00
4183;DHT22;2105;52.300;9.182;2024-01-30T14:51:01;12.20;41.20
4183;DHT22;2105;52.300;9.182;2024-01-30T14:53:28;12.20;39.10
4183;DHT22;2105;52.300;9.182;2024-01-30T14:55:56;12.20;49.30
4183;DHT22;2105;52.300;9.182;2024-01-30T14:58:23;12.30;77.10
4183;DHT22;2105;52.300;9.182;2024-01-30T15:00:49;12.20;83.70
4183;DHT22;2105;52.300;9.182;2024-01-30T15:03:16;12.20;93.00
4183;DHT22;2105;52.300;9.182;2024-01-30T15:05:42;12.20;99.90
4183;DHT22;2105;52.300;9.182;2024-01-30T15:08:09;12.20;99.90
4183;DHT22;2105;52.300;9.182;2024-01-30T15:10:36;12.10;99.90
4183;DHT22;2105;52.300;9.182;2024-01-30T15:13:04;12.20;99.90
4183;DHT22;2105;52.300;9.182;2024-01-30T15:15:31;12.10;99.90
4183;DHT22;2105;52.300;9.182;2024-01-30T15:17:57;12.20;99.90
4183;DHT22;2105;52.300;9.182;2024-01-30T15:20:24;12.30;99.90
4183;DHT22;2105;52.300;9.182;2024-01-30T15:22:50;12.10;99.90
4183;DHT22;2105;52.300;9.182;2024-01-30T15:25:17;12.10;99.90
4183;DHT22;2105;52.300;9.182;2024-01-30T15:27:43;12.10;99.90
4183;DHT22;2105;52.300;9.182;2024-01-30T15:30:15;12.10;99.90
4183;DHT22;2105;52.300;9.182;2024-01-30T15:32:47;12.10;99.90
4183;DHT22;2105;52.300;9.182;2024-01-30T15:35:14;12.10;1.00
4183;DHT22;2105;52.300;9.182;2024-01-30T15:37:40;12.10;1.00
4183;DHT22;2105;52.300;9.182;2024-01-30T15:40:08;12.10;99.90
4183;DHT22;2105;52.300;9.182;2024-01-30T15:42:34;12.10;99.90
4183;DHT22;2105;52.300;9.182;2024-01-30T15:45:01;12.10;1.00
4183;DHT22;2105;52.300;9.182;2024-01-30T15:47:29;12.10;1.00
4183;DHT22;2105;52.300;9.182;2024-01-30T15:49:56;12.10;1.00
4183;DHT22;2105;52.300;9.182;2024-01-30T15:52:22;12.00;1.00
4183;DHT22;2105;52.300;9.182;2024-01-30T15:54:49;12.00;1.00
4183;DHT22;2105;52.300;9.182;2024-01-30T15:57:16;12.00;1.00
4183;DHT22;2105;52.300;9.182;2024-01-30T15:59:42;11.90;99.90
4183;DHT22;2105;52.300;9.182;2024-01-30T16:02:10;11.90;99.90
4183;DHT22;2105;52.300;9.182;2024-01-30T16:04:38;11.90;1.00
4183;DHT22;2105;52.300;9.182;2024-01-30T16:07:04;11.90;1.00
4183;DHT22;2105;52.300;9.182;2024-01-30T16:09:31;11.80;1.00
4183;DHT22;2105;52.300;9.182;2024-01-30T16:11:58;11.80;1.00
4183;DHT22;2105;52.300;9.182;2024-01-30T16:14:24;11.80;1.00
4183;DHT22;2105;52.300;9.182;2024-01-30T16:16:51;11.70;1.00
4183;DHT22;2105;52.300;9.182;2024-01-30T16:19:17;11.70;1.00
4183;DHT22;2105;52.300;9.182;2024-01-30T16:21:45;11.70;1.00